sensor_id;sensor_type;location;lat;lon;timestamp;pressure;altitude;pressure_sealevel;temperature;humidity
10718;BME280;13513;42.700;23.124;2022-09-27T00:01:35;92059.73;;;15.95;100.00
10718;BME280;13513;42.700;23.124;2022-09-27T00:04:06;92062.02;;;15.88;100.00
10718;BME280;13513;42.700;23.124;2022-09-27T00:06:37;92075.45;;;15.83;100.00
10718;BME280;13513;42.700;23.124;2022-09-27T00:09:08;92075.66;;;15.86;100.00
10718;BME280;13513;42.700;23.124;2022-09-27T00:11:40;92077.72;;;15.76;100.00
10718;BME280;13513;42.700;23.124;2022-09-27T00:14:14;92093.00;;;15.84;100.00
10718;BME280;13513;42.700;23.124;2022-09-27T00:16:47;92103.42;;;15.83;100.00
10718;BME280;13513;42.700;23.124;2022-09-27T00:19:19;92102.38;;;15.81;100.00
10718;BME280;13513;42.700;23.124;2022-09-27T00:21:49;92101.11;;;15.79;100.00
10718;BME280;13513;42.700;23.124;2022-09-27T00:24:21;92096.02;;;15.80;100.00
10718;BME280;13513;42.700;23.124;2022-09-27T00:26:52;92089.36;;;15.80;100.00
10718;BME280;13513;42.700;23.124;2022-09-27T00:29:23;92093.80;;;15.84;100.00
10718;BME280;13513;42.700;23.124;2022-09-27T00:31:53;92086.61;;;15.85;100.00
10718;BME280;13513;42.700;23.124;2022-09-27T00:34:24;92083.84;;;15.76;100.00
10718;BME280;13513;42.700;23.124;2022-09-27T00:36:54;92075.33;;;15.77;100.00
10718;BME280;13513;42.700;23.124;2022-09-27T00:39:25;92072.95;;;15.75;100.00
10718;BME280;13513;42.700;23.124;2022-09-27T00:41:56;92071.36;;;15.74;100.00
10718;BME280;13513;42.700;23.124;2022-09-27T00:49:40;92037.84;;;15.60;100.00
10718;BME280;13513;42.700;23.124;2022-09-27T00:52:15;92020.59;;;15.57;100.00
10718;BME280;13513;42.700;23.124;2022-09-27T00:54:47;92027.60;;;15.53;100.00
10718;BME280;13513;42.700;23.124;2022-09-27T00:57:18;92027.30;;;15.55;100.00
10718;BME280;13513;42.700;23.124;2022-09-27T00:59:58;92032.47;;;15.49;100.00
10718;BME280;13513;42.700;23.124;2022-09-27T01:02:24;92028.75;;;15.50;100.00
10718;BME280;13513;42.700;23.124;2022-09-27T01:04:56;92020.31;;;15.45;100.00
10718;BME280;13513;42.700;23.124;2022-09-27T01:07:27;92007.45;;;15.50;100.00
10718;BME280;13513;42.700;23.124;2022-09-27T01:09:58;92006.50;;;15.43;100.00
10718;BME280;13513;42.700;23.124;2022-09-27T01:21:21;92033.61;;;15.59;100.00
10718;BME280;13513;42.700;23.124;2022-09-27T01:24:33;92028.29;;;15.59;100.00
10718;BME280;13513;42.700;23.124;2022-09-27T01:26:43;91999.05;;;15.56;100.00
10718;BME280;13513;42.700;23.124;2022-09-27T01:29:16;92002.48;;;15.57;100.00
10718;BME280;13513;42.700;23.124;2022-09-27T01:31:51;92008.91;;;15.56;100.00
10718;BME280;13513;42.700;23.124;2022-09-27T01:37:34;91991.13;;;15.54;100.00
10718;BME280;13513;42.700;23.124;2022-09-27T01:40:09;92005.32;;;15.49;100.00
10718;BME280;13513;42.700;23.124;2022-09-27T01:42:44;92003.16;;;15.51;100.00
10718;BME280;13513;42.700;23.124;2022-09-27T01:45:17;92015.14;;;15.51;100.00
10718;BME280;13513;42.700;23.124;2022-09-27T01:47:57;92014.28;;;15.53;100.00
10718;BME280;13513;42.700;23.124;2022-09-27T01:50:33;92014.41;;;15.48;100.00
10718;BME280;13513;42.700;23.124;2022-09-27T01:53:05;92010.41;;;15.48;100.00
10718;BME280;13513;42.700;23.124;2022-09-27T01:55:37;92003.98;;;15.49;100.00
10718;BME280;13513;42.700;23.124;2022-09-27T01:58:23;91993.19;;;15.43;100.00
10718;BME280;13513;42.700;23.124;2022-09-27T02:00:53;91993.45;;;15.44;100.00
10718;BME280;13513;42.700;23.124;2022-09-27T02:03:46;91983.16;;;15.40;100.00
10718;BME280;13513;42.700;23.124;2022-09-27T02:06:01;91990.16;;;15.36;100.00
10718;BME280;13513;42.700;23.124;2022-09-27T02:08:38;91979.84;;;15.32;100.00
10718;BME280;13513;42.700;23.124;2022-09-27T02:11:11;91968.98;;;15.29;100.00
10718;BME280;13513;42.700;23.124;2022-09-27T02:19:30;91962.20;;;15.23;100.00
10718;BME280;13513;42.700;23.124;2022-09-27T02:24:53;91948.09;;;15.22;100.00
10718;BME280;13513;42.700;23.124;2022-09-27T02:27:24;91932.92;;;15.23;100.00
10718;BME280;13513;42.700;23.124;2022-09-27T02:30:06;91937.65;;;15.12;100.00
10718;BME280;13513;42.700;23.124;2022-09-27T02:32:33;91938.78;;;15.22;100.00
10718;BME280;13513;42.700;23.124;2022-09-27T02:35:21;91941.59;;;15.28;100.00
10718;BME280;13513;42.700;23.124;2022-09-27T02:37:48;91946.12;;;15.28;100.00
10718;BME280;13513;42.700;23.124;2022-09-27T02:40:18;91938.72;;;15.25;100.00
10718;BME280;13513;42.700;23.124;2022-09-27T02:42:50;91946.95;;;15.26;100.00
10718;BME280;13513;42.700;23.124;2022-09-27T02:45:21;91944.97;;;15.31;100.00
10718;BME280;13513;42.700;23.124;2022-09-27T02:50:40;91955.86;;;15.35;100.00
10718;BME280;13513;42.700;23.124;2022-09-27T02:53:24;91950.80;;;15.33;100.00
10718;BME280;13513;42.700;23.124;2022-09-27T02:55:58;91957.98;;;15.46;100.00
10718;BME280;13513;42.700;23.124;2022-09-27T03:01:35;91942.55;;;15.35;100.00
10718;BME280;13513;42.700;23.124;2022-09-27T03:04:26;91950.23;;;15.36;100.00
10718;BME280;13513;42.700;23.124;2022-09-27T03:06:41;91931.61;;;15.36;100.00
10718;BME280;13513;42.700;23.124;2022-09-27T03:09:20;91932.38;;;15.37;100.00
10718;BME280;13513;42.700;23.124;2022-09-27T03:11:53;91932.64;;;15.38;100.00
10718;BME280;13513;42.700;23.124;2022-09-27T03:14:23;91919.74;;;15.42;100.00
10718;BME280;13513;42.700;23.124;2022-09-27T03:16:53;91932.76;;;15.44;100.00
10718;BME280;13513;42.700;23.124;2022-09-27T03:19:24;91921.84;;;15.56;100.00
10718;BME280;13513;42.700;23.124;2022-09-27T03:21:56;91916.73;;;15.46;100.00
10718;BME280;13513;42.700;23.124;2022-09-27T03:24:27;91921.10;;;15.53;100.00
10718;BME280;13513;42.700;23.124;2022-09-27T03:26:58;91922.97;;;15.53;100.00
10718;BME280;13513;42.700;23.124;2022-09-27T03:29:29;91914.80;;;15.49;100.00
10718;BME280;13513;42.700;23.124;2022-09-27T03:31:59;91931.16;;;15.56;100.00
10718;BME280;13513;42.700;23.124;2022-09-27T03:34:30;91931.61;;;15.47;100.00
10718;BME280;13513;42.700;23.124;2022-09-27T03:37:00;91926.40;;;15.42;100.00
10718;BME280;13513;42.700;23.124;2022-09-27T03:39:31;91924.09;;;15.38;100.00
10718;BME280;13513;42.700;23.124;2022-09-27T03:42:02;91918.06;;;15.46;100.00
10718;BME280;13513;42.700;23.124;2022-09-27T03:44:33;91915.75;;;15.42;100.00
10718;BME280;13513;42.700;23.124;2022-09-27T03:47:04;91923.83;;;15.51;100.00
10718;BME280;13513;42.700;23.124;2022-09-27T03:49:35;91919.28;;;15.62;100.00
10718;BME280;13513;42.700;23.124;2022-09-27T03:52:06;91922.34;;;15.45;100.00
10718;BME280;13513;42.700;23.124;2022-09-27T03:54:36;91918.97;;;15.53;100.00
10718;BME280;13513;42.700;23.124;2022-09-27T03:57:07;91924.91;;;15.61;100.00
10718;BME280;13513;42.700;23.124;2022-09-27T03:59:38;91914.58;;;15.70;100.00
10718;BME280;13513;42.700;23.124;2022-09-27T04:02:09;91910.58;;;15.70;100.00
10718;BME280;13513;42.700;23.124;2022-09-27T04:04:40;91918.75;;;15.63;100.00
10718;BME280;13513;42.700;23.124;2022-09-27T04:07:10;91914.64;;;15.68;100.00
10718;BME280;13513;42.700;23.124;2022-09-27T04:09:41;91915.67;;;15.69;100.00
10718;BME280;13513;42.700;23.124;2022-09-27T04:12:13;91900.29;;;15.66;100.00
10718;BME280;13513;42.700;23.124;2022-09-27T04:14:43;91900.85;;;15.66;100.00
10718;BME280;13513;42.700;23.124;2022-09-27T04:17:13;91900.00;;;15.79;100.00
10718;BME280;13513;42.700;23.124;2022-09-27T04:19:44;91897.27;;;15.70;100.00
10718;BME280;13513;42.700;23.124;2022-09-27T04:22:15;91910.48;;;15.75;100.00
10718;BME280;13513;42.700;23.124;2022-09-27T04:24:46;91908.64;;;15.62;100.00
10718;BME280;13513;42.700;23.124;2022-09-27T04:27:17;91912.39;;;15.61;100.00
10718;BME280;13513;42.700;23.124;2022-09-27T04:29:47;91922.94;;;15.55;100.00
10718;BME280;13513;42.700;23.124;2022-09-27T04:32:18;91925.17;;;15.62;100.00
10718;BME280;13513;42.700;23.124;2022-09-27T04:34:49;91925.09;;;15.53;100.00
10718;BME280;13513;42.700;23.124;2022-09-27T04:37:36;91912.28;;;15.55;100.00
10718;BME280;13513;42.700;23.124;2022-09-27T04:40:08;91918.44;;;15.53;100.00
10718;BME280;13513;42.700;23.124;2022-09-27T04:42:38;91915.30;;;15.51;100.00
10718;BME280;13513;42.700;23.124;2022-09-27T04:45:09;91920.45;;;15.59;100.00
10718;BME280;13513;42.700;23.124;2022-09-27T04:47:47;91908.95;;;15.72;100.00
10718;BME280;13513;42.700;23.124;2022-09-27T04:50:18;91921.20;;;15.73;100.00
10718;BME280;13513;42.700;23.124;2022-09-27T04:52:53;91915.27;;;15.65;100.00
10718;BME280;13513;42.700;23.124;2022-09-27T04:55:24;91904.95;;;15.72;100.00
10718;BME280;13513;42.700;23.124;2022-09-27T04:57:54;91902.73;;;15.76;100.00
10718;BME280;13513;42.700;23.124;2022-09-27T05:00:25;91898.50;;;15.75;100.00
10718;BME280;13513;42.700;23.124;2022-09-27T05:02:56;91897.70;;;15.75;100.00
10718;BME280;13513;42.700;23.124;2022-09-27T05:05:25;91890.97;;;15.66;100.00
10718;BME280;13513;42.700;23.124;2022-09-27T05:07:55;91884.31;;;15.66;100.00
10718;BME280;13513;42.700;23.124;2022-09-27T05:10:27;91889.97;;;15.65;100.00
10718;BME280;13513;42.700;23.124;2022-09-27T05:12:59;91883.34;;;15.62;100.00
10718;BME280;13513;42.700;23.124;2022-09-27T05:15:29;91880.44;;;15.61;100.00
10718;BME280;13513;42.700;23.124;2022-09-27T05:18:00;91875.78;;;15.56;100.00
10718;BME280;13513;42.700;23.124;2022-09-27T05:20:31;91876.28;;;15.58;100.00
10718;BME280;13513;42.700;23.124;2022-09-27T05:23:03;91863.50;;;15.57;100.00
10718;BME280;13513;42.700;23.124;2022-09-27T05:25:34;91858.14;;;15.35;100.00
10718;BME280;13513;42.700;23.124;2022-09-27T05:28:04;91847.51;;;15.46;100.00
10718;BME280;13513;42.700;23.124;2022-09-27T05:30:35;91838.09;;;15.51;100.00
10718;BME280;13513;42.700;23.124;2022-09-27T05:33:06;91824.95;;;15.44;100.00
10718;BME280;13513;42.700;23.124;2022-09-27T05:35:37;91853.55;;;15.38;100.00
10718;BME280;13513;42.700;23.124;2022-09-27T05:38:08;91852.09;;;15.43;100.00
10718;BME280;13513;42.700;23.124;2022-09-27T05:40:38;91853.80;;;15.50;100.00
10718;BME280;13513;42.700;23.124;2022-09-27T05:43:09;91853.87;;;15.59;100.00
10718;BME280;13513;42.700;23.124;2022-09-27T05:45:40;91845.33;;;15.37;100.00
10718;BME280;13513;42.700;23.124;2022-09-27T05:48:12;91849.09;;;15.36;100.00
10718;BME280;13513;42.700;23.124;2022-09-27T05:50:43;91845.70;;;15.44;100.00
10718;BME280;13513;42.700;23.124;2022-09-27T05:53:15;91862.89;;;15.49;100.00
10718;BME280;13513;42.700;23.124;2022-09-27T05:55:47;91858.36;;;15.50;100.00
10718;BME280;13513;42.700;23.124;2022-09-27T05:58:18;91864.22;;;15.49;100.00
10718;BME280;13513;42.700;23.124;2022-09-27T06:00:49;91849.15;;;15.56;100.00
10718;BME280;13513;42.700;23.124;2022-09-27T06:03:20;91861.87;;;15.59;100.00
10718;BME280;13513;42.700;23.124;2022-09-27T06:05:51;91858.47;;;15.56;100.00
10718;BME280;13513;42.700;23.124;2022-09-27T06:08:22;91860.53;;;15.59;100.00
10718;BME280;13513;42.700;23.124;2022-09-27T06:10:59;91853.89;;;15.70;100.00
10718;BME280;13513;42.700;23.124;2022-09-27T06:13:25;91855.88;;;15.75;100.00
10718;BME280;13513;42.700;23.124;2022-09-27T06:15:56;91861.88;;;15.70;100.00
10718;BME280;13513;42.700;23.124;2022-09-27T06:18:30;91862.70;;;15.68;100.00
10718;BME280;13513;42.700;23.124;2022-09-27T06:21:03;91866.47;;;15.67;100.00
10718;BME280;13513;42.700;23.124;2022-09-27T06:23:34;91869.27;;;15.73;100.00
10718;BME280;13513;42.700;23.124;2022-09-27T06:26:06;91860.67;;;15.65;100.00
10718;BME280;13513;42.700;23.124;2022-09-27T06:28:37;91863.13;;;15.61;100.00
10718;BME280;13513;42.700;23.124;2022-09-27T06:31:08;91858.30;;;15.52;100.00
10718;BME280;13513;42.700;23.124;2022-09-27T06:33:39;91857.33;;;15.48;100.00
10718;BME280;13513;42.700;23.124;2022-09-27T06:36:10;91868.04;;;15.46;100.00
10718;BME280;13513;42.700;23.124;2022-09-27T06:38:41;91874.19;;;15.44;100.00
10718;BME280;13513;42.700;23.124;2022-09-27T06:41:11;91868.43;;;15.39;100.00
10718;BME280;13513;42.700;23.124;2022-09-27T06:43:42;91854.18;;;15.33;100.00
10718;BME280;13513;42.700;23.124;2022-09-27T06:46:13;91844.19;;;15.27;100.00
10718;BME280;13513;42.700;23.124;2022-09-27T06:48:44;91834.55;;;15.18;100.00
10718;BME280;13513;42.700;23.124;2022-09-27T06:51:15;91846.00;;;15.18;100.00
10718;BME280;13513;42.700;23.124;2022-09-27T06:53:46;91856.64;;;15.18;100.00
10718;BME280;13513;42.700;23.124;2022-09-27T06:56:18;91864.71;;;15.27;100.00
10718;BME280;13513;42.700;23.124;2022-09-27T06:58:49;91862.28;;;15.41;100.00
10718;BME280;13513;42.700;23.124;2022-09-27T07:01:36;91859.61;;;15.41;100.00
10718;BME280;13513;42.700;23.124;2022-09-27T07:04:15;91858.09;;;15.49;100.00
10718;BME280;13513;42.700;23.124;2022-09-27T07:06:46;91867.66;;;15.61;100.00
10718;BME280;13513;42.700;23.124;2022-09-27T07:09:16;91869.37;;;15.68;100.00
10718;BME280;13513;42.700;23.124;2022-09-27T07:11:48;91873.92;;;15.67;100.00
10718;BME280;13513;42.700;23.124;2022-09-27T07:14:18;91885.84;;;15.70;100.00
10718;BME280;13513;42.700;23.124;2022-09-27T07:16:49;91895.41;;;15.82;100.00
10718;BME280;13513;42.700;23.124;2022-09-27T07:19:19;91899.77;;;15.89;100.00
10718;BME280;13513;42.700;23.124;2022-09-27T07:21:51;91908.17;;;15.93;100.00
10718;BME280;13513;42.700;23.124;2022-09-27T07:24:22;91907.73;;;16.11;100.00
10718;BME280;13513;42.700;23.124;2022-09-27T07:26:53;91902.97;;;16.22;100.00
10718;BME280;13513;42.700;23.124;2022-09-27T07:29:23;91902.67;;;16.23;100.00
10718;BME280;13513;42.700;23.124;2022-09-27T07:31:54;91899.66;;;16.58;100.00
10718;BME280;13513;42.700;23.124;2022-09-27T07:34:25;91893.88;;;16.64;100.00
10718;BME280;13513;42.700;23.124;2022-09-27T07:37:02;91893.12;;;16.72;100.00
10718;BME280;13513;42.700;23.124;2022-09-27T07:39:32;91897.39;;;16.82;100.00
10718;BME280;13513;42.700;23.124;2022-09-27T07:42:03;91887.70;;;16.66;100.00
10718;BME280;13513;42.700;23.124;2022-09-27T07:44:33;91875.27;;;16.62;100.00
10718;BME280;13513;42.700;23.124;2022-09-27T07:47:06;91872.94;;;16.49;100.00
10718;BME280;13513;42.700;23.124;2022-09-27T07:49:38;91884.63;;;16.51;100.00
10718;BME280;13513;42.700;23.124;2022-09-27T07:52:08;91886.91;;;16.46;100.00
10718;BME280;13513;42.700;23.124;2022-09-27T07:54:39;91901.56;;;16.24;100.00
10718;BME280;13513;42.700;23.124;2022-09-27T07:57:09;91905.20;;;16.17;100.00
10718;BME280;13513;42.700;23.124;2022-09-27T07:59:40;91912.00;;;15.90;100.00
10718;BME280;13513;42.700;23.124;2022-09-27T08:02:15;91915.55;;;15.74;100.00
10718;BME280;13513;42.700;23.124;2022-09-27T08:04:46;91922.33;;;15.69;100.00
10718;BME280;13513;42.700;23.124;2022-09-27T08:07:18;91927.34;;;15.60;100.00
10718;BME280;13513;42.700;23.124;2022-09-27T08:09:49;91917.84;;;15.56;100.00
10718;BME280;13513;42.700;23.124;2022-09-27T08:12:20;91923.05;;;15.61;100.00
10718;BME280;13513;42.700;23.124;2022-09-27T08:14:51;91915.73;;;15.67;100.00
10718;BME280;13513;42.700;23.124;2022-09-27T08:17:21;91908.73;;;15.82;100.00
10718;BME280;13513;42.700;23.124;2022-09-27T08:19:52;91913.27;;;15.92;100.00
10718;BME280;13513;42.700;23.124;2022-09-27T08:22:24;91915.20;;;16.12;100.00
10718;BME280;13513;42.700;23.124;2022-09-27T08:24:54;91897.20;;;16.28;100.00
10718;BME280;13513;42.700;23.124;2022-09-27T08:27:25;91882.46;;;16.53;100.00
10718;BME280;13513;42.700;23.124;2022-09-27T08:29:56;91868.50;;;16.75;100.00
10718;BME280;13513;42.700;23.124;2022-09-27T08:32:27;91859.10;;;17.14;100.00
10718;BME280;13513;42.700;23.124;2022-09-27T08:34:57;91839.39;;;17.66;100.00
10718;BME280;13513;42.700;23.124;2022-09-27T08:37:28;91842.91;;;18.99;100.00
10718;BME280;13513;42.700;23.124;2022-09-27T08:40:00;91836.19;;;21.23;100.00
10718;BME280;13513;42.700;23.124;2022-09-27T08:42:42;91825.20;;;23.15;97.90
10718;BME280;13513;42.700;23.124;2022-09-27T08:47:45;91823.95;;;24.92;71.58
10718;BME280;13513;42.700;23.124;2022-09-27T08:50:24;91827.91;;;23.90;73.84
10718;BME280;13513;42.700;23.124;2022-09-27T08:53:02;91832.16;;;25.09;68.99
10718;BME280;13513;42.700;23.124;2022-09-27T08:55:37;91826.72;;;23.38;77.01
10718;BME280;13513;42.700;23.124;2022-09-27T08:58:27;91819.87;;;21.86;90.97
10718;BME280;13513;42.700;23.124;2022-09-27T09:00:42;91830.67;;;22.29;90.78
10718;BME280;13513;42.700;23.124;2022-09-27T09:03:17;91824.30;;;21.36;91.69
10718;BME280;13513;42.700;23.124;2022-09-27T09:06:10;91829.44;;;20.69;99.28
10718;BME280;13513;42.700;23.124;2022-09-27T09:08:36;91826.12;;;20.34;100.00
10718;BME280;13513;42.700;23.124;2022-09-27T09:16:57;91838.83;;;18.93;100.00
10718;BME280;13513;42.700;23.124;2022-09-27T09:19:52;91839.20;;;19.12;100.00
10718;BME280;13513;42.700;23.124;2022-09-27T09:22:43;91838.18;;;19.10;100.00
10718;BME280;13513;42.700;23.124;2022-09-27T09:25:20;91833.50;;;19.42;100.00
10718;BME280;13513;42.700;23.124;2022-09-27T09:33:32;91817.11;;;22.90;89.45
10718;BME280;13513;42.700;23.124;2022-09-27T09:36:35;91827.34;;;23.47;79.04
10718;BME280;13513;42.700;23.124;2022-09-27T09:42:12;91825.24;;;26.28;62.65
10718;BME280;13513;42.700;23.124;2022-09-27T09:44:47;91830.80;;;25.31;62.78
10718;BME280;13513;42.700;23.124;2022-09-27T09:47:34;91844.12;;;24.47;70.76
10718;BME280;13513;42.700;23.124;2022-09-27T09:50:04;91837.48;;;25.50;64.84
10718;BME280;13513;42.700;23.124;2022-09-27T09:52:41;91835.25;;;24.47;69.42
10718;BME280;13513;42.700;23.124;2022-09-27T09:55:18;91828.56;;;23.59;77.59
10718;BME280;13513;42.700;23.124;2022-09-27T10:00:16;91822.08;;;22.17;84.84
10718;BME280;13513;42.700;23.124;2022-09-27T10:02:47;91824.45;;;21.79;89.50
10718;BME280;13513;42.700;23.124;2022-09-27T10:05:23;91825.28;;;21.50;93.97
10718;BME280;13513;42.700;23.124;2022-09-27T10:07:57;91827.22;;;21.25;97.78
10718;BME280;13513;42.700;23.124;2022-09-27T10:10:26;91829.36;;;21.26;97.39
10718;BME280;13513;42.700;23.124;2022-09-27T10:12:57;91826.43;;;21.31;98.06
10718;BME280;13513;42.700;23.124;2022-09-27T10:15:29;91818.38;;;21.37;97.19
10718;BME280;13513;42.700;23.124;2022-09-27T10:18:01;91820.34;;;21.64;99.13
10718;BME280;13513;42.700;23.124;2022-09-27T10:20:40;91810.93;;;21.58;95.33
10718;BME280;13513;42.700;23.124;2022-09-27T10:23:18;91807.86;;;21.26;95.37
10718;BME280;13513;42.700;23.124;2022-09-27T10:25:58;91798.98;;;21.43;96.55
10718;BME280;13513;42.700;23.124;2022-09-27T10:28:41;91793.10;;;21.14;95.39
10718;BME280;13513;42.700;23.124;2022-09-27T10:31:19;91801.16;;;21.08;96.99
10718;BME280;13513;42.700;23.124;2022-09-27T10:33:58;91796.75;;;20.67;97.03
10718;BME280;13513;42.700;23.124;2022-09-27T10:36:31;91793.08;;;20.72;98.94
10718;BME280;13513;42.700;23.124;2022-09-27T10:39:04;91790.29;;;20.68;97.34
10718;BME280;13513;42.700;23.124;2022-09-27T10:41:39;91791.19;;;20.72;97.49
10718;BME280;13513;42.700;23.124;2022-09-27T10:44:23;91786.38;;;21.08;95.87
10718;BME280;13513;42.700;23.124;2022-09-27T10:46:53;91784.26;;;21.01;93.66
10718;BME280;13513;42.700;23.124;2022-09-27T10:49:41;91781.22;;;20.91;95.05
10718;BME280;13513;42.700;23.124;2022-09-27T10:52:21;91796.27;;;21.55;92.41
10718;BME280;13513;42.700;23.124;2022-09-27T10:54:56;91789.58;;;21.89;88.24
10718;BME280;13513;42.700;23.124;2022-09-27T10:57:30;91776.73;;;22.04;88.39
10718;BME280;13513;42.700;23.124;2022-09-27T11:00:29;91773.80;;;22.98;83.09
10718;BME280;13513;42.700;23.124;2022-09-27T11:02:38;91774.44;;;23.96;76.67
10718;BME280;13513;42.700;23.124;2022-09-27T11:07:59;91772.98;;;24.81;65.99
10718;BME280;13513;42.700;23.124;2022-09-27T11:10:30;91782.83;;;24.10;72.18
10718;BME280;13513;42.700;23.124;2022-09-27T11:13:19;91765.44;;;24.07;72.83
10718;BME280;13513;42.700;23.124;2022-09-27T11:21:44;91749.05;;;24.61;68.86
10718;BME280;13513;42.700;23.124;2022-09-27T11:24:17;91749.94;;;24.14;68.69
10718;BME280;13513;42.700;23.124;2022-09-27T11:26:52;91744.54;;;24.46;67.49
10718;BME280;13513;42.700;23.124;2022-09-27T11:29:40;91743.88;;;25.20;65.60
10718;BME280;13513;42.700;23.124;2022-09-27T11:32:18;91737.05;;;25.39;63.85
10718;BME280;13513;42.700;23.124;2022-09-27T11:35:14;91733.93;;;25.96;59.42
10718;BME280;13513;42.700;23.124;2022-09-27T11:37:55;91732.41;;;26.15;58.96
10718;BME280;13513;42.700;23.124;2022-09-27T11:46:23;91712.44;;;26.63;54.46
10718;BME280;13513;42.700;23.124;2022-09-27T11:49:13;91706.50;;;26.34;55.29
10718;BME280;13513;42.700;23.124;2022-09-27T11:54:40;91709.98;;;26.71;55.81
10718;BME280;13513;42.700;23.124;2022-09-27T11:57:37;91700.63;;;26.65;55.20
10718;BME280;13513;42.700;23.124;2022-09-27T12:00:22;91699.86;;;25.62;57.27
10718;BME280;13513;42.700;23.124;2022-09-27T12:11:11;91675.52;;;23.84;69.78
10718;BME280;13513;42.700;23.124;2022-09-27T12:13:44;91671.19;;;23.99;67.21
10718;BME280;13513;42.700;23.124;2022-09-27T12:16:12;91656.44;;;23.93;67.15
10718;BME280;13513;42.700;23.124;2022-09-27T12:18:44;91660.89;;;23.76;65.65
10718;BME280;13513;42.700;23.124;2022-09-27T12:21:16;91644.80;;;23.70;67.29
10718;BME280;13513;42.700;23.124;2022-09-27T12:23:54;91647.64;;;23.77;66.13
10718;BME280;13513;42.700;23.124;2022-09-27T12:26:28;91626.26;;;23.78;67.06
10718;BME280;13513;42.700;23.124;2022-09-27T12:29:24;91633.15;;;23.94;67.80
10718;BME280;13513;42.700;23.124;2022-09-27T12:34:45;91640.55;;;24.33;65.25
10718;BME280;13513;42.700;23.124;2022-09-27T12:40:05;91629.72;;;23.78;64.67
10718;BME280;13513;42.700;23.124;2022-09-27T12:42:39;91627.62;;;23.68;63.31
10718;BME280;13513;42.700;23.124;2022-09-27T12:45:15;91613.59;;;23.91;63.75
10718;BME280;13513;42.700;23.124;2022-09-27T12:48:00;91600.33;;;23.92;65.55
10718;BME280;13513;42.700;23.124;2022-09-27T12:53:20;91602.39;;;24.47;67.22
10718;BME280;13513;42.700;23.124;2022-09-27T13:04:55;91598.12;;;24.82;59.15
10718;BME280;13513;42.700;23.124;2022-09-27T13:13:20;91616.58;;;24.63;61.71
10718;BME280;13513;42.700;23.124;2022-09-27T13:15:54;91632.31;;;24.71;55.93
10718;BME280;13513;42.700;23.124;2022-09-27T13:21:09;91627.11;;;24.72;58.07
10718;BME280;13513;42.700;23.124;2022-09-27T13:29:09;91601.75;;;24.93;57.93
10718;BME280;13513;42.700;23.124;2022-09-27T13:34:41;91602.91;;;25.21;54.02
10718;BME280;13513;42.700;23.124;2022-09-27T13:40:22;91611.44;;;24.45;60.51
10718;BME280;13513;42.700;23.124;2022-09-27T13:43:16;91625.41;;;23.74;65.92
10718;BME280;13513;42.700;23.124;2022-09-27T13:45:59;91631.34;;;23.06;70.46
10718;BME280;13513;42.700;23.124;2022-09-27T13:48:44;91642.16;;;22.72;72.53
10718;BME280;13513;42.700;23.124;2022-09-27T13:51:45;91640.72;;;23.03;73.69
10718;BME280;13513;42.700;23.124;2022-09-27T13:54:34;91644.96;;;23.29;72.39
10718;BME280;13513;42.700;23.124;2022-09-27T13:57:19;91647.79;;;22.92;72.69
10718;BME280;13513;42.700;23.124;2022-09-27T13:59:48;91647.16;;;22.64;75.97
10718;BME280;13513;42.700;23.124;2022-09-27T14:02:30;91643.17;;;22.58;76.72
10718;BME280;13513;42.700;23.124;2022-09-27T14:05:01;91649.56;;;22.44;76.94
10718;BME280;13513;42.700;23.124;2022-09-27T14:07:40;91633.29;;;22.15;78.50
10718;BME280;13513;42.700;23.124;2022-09-27T14:10:19;91617.52;;;22.08;79.37
10718;BME280;13513;42.700;23.124;2022-09-27T14:12:41;91642.83;;;21.97;80.54
10718;BME280;13513;42.700;23.124;2022-09-27T14:15:17;91642.43;;;21.89;81.04
10718;BME280;13513;42.700;23.124;2022-09-27T14:17:48;91642.92;;;21.79;80.83
10718;BME280;13513;42.700;23.124;2022-09-27T14:20:36;91643.65;;;21.64;83.13
10718;BME280;13513;42.700;23.124;2022-09-27T14:23:12;91630.73;;;21.54;84.86
10718;BME280;13513;42.700;23.124;2022-09-27T14:25:45;91630.34;;;21.62;84.21
10718;BME280;13513;42.700;23.124;2022-09-27T14:28:19;91603.56;;;21.65;84.09
10718;BME280;13513;42.700;23.124;2022-09-27T14:33:41;91608.69;;;21.49;85.49
10718;BME280;13513;42.700;23.124;2022-09-27T14:39:11;91592.36;;;21.20;88.56
10718;BME280;13513;42.700;23.124;2022-09-27T14:41:37;91562.06;;;21.14;88.49
10718;BME280;13513;42.700;23.124;2022-09-27T14:44:16;91568.52;;;21.19;94.22
10718;BME280;13513;42.700;23.124;2022-09-27T14:46:47;91600.96;;;21.26;91.00
10718;BME280;13513;42.700;23.124;2022-09-27T14:49:22;91636.27;;;21.18;87.90
10718;BME280;13513;42.700;23.124;2022-09-27T14:51:55;91666.41;;;21.06;93.82
10718;BME280;13513;42.700;23.124;2022-09-27T14:54:27;91682.91;;;20.20;100.00
10718;BME280;13513;42.700;23.124;2022-09-27T14:57:00;91716.20;;;18.37;100.00
10718;BME280;13513;42.700;23.124;2022-09-27T14:59:33;91719.33;;;16.40;100.00
10718;BME280;13513;42.700;23.124;2022-09-27T15:02:10;91665.52;;;15.53;100.00
10718;BME280;13513;42.700;23.124;2022-09-27T15:04:41;91644.95;;;15.04;100.00
10718;BME280;13513;42.700;23.124;2022-09-27T15:07:08;91674.89;;;14.52;100.00
10718;BME280;13513;42.700;23.124;2022-09-27T15:09:40;91678.30;;;14.17;100.00
10718;BME280;13513;42.700;23.124;2022-09-27T15:12:17;91680.50;;;14.12;100.00
10718;BME280;13513;42.700;23.124;2022-09-27T15:14:48;91687.03;;;13.93;100.00
10718;BME280;13513;42.700;23.124;2022-09-27T15:17:20;91707.87;;;13.72;100.00